createdAt,value
2023-03-05T00:01:33.492Z,98892.25
2023-03-05T00:04:35.114Z,98895.69
2023-03-05T00:07:36.675Z,98887.94
2023-03-05T00:10:38.253Z,98884.41
2023-03-05T00:13:39.859Z,98887.94
2023-03-05T00:16:41.351Z,98891.78
2023-03-05T00:19:43.081Z,98892.56
2023-03-05T00:22:44.576Z,98889.38
2023-03-05T00:25:46.641Z,98888.41
2023-03-05T00:28:50.000Z,98885.38
2023-03-05T00:31:51.511Z,98886.16
2023-03-05T00:34:53.017Z,98883.50
2023-03-05T00:37:54.537Z,98892.09
2023-03-05T00:40:56.048Z,98886.63
2023-03-05T00:43:57.696Z,98885.56
2023-03-05T00:46:59.217Z,98886.22
2023-03-05T00:50:00.863Z,98893.38
2023-03-05T00:53:02.571Z,98882.06
2023-03-05T00:56:04.299Z,98889.63
2023-03-05T00:59:05.822Z,98891.38
2023-03-05T01:02:07.301Z,98887.97
2023-03-05T01:05:11.783Z,98881.09
2023-03-05T01:08:13.320Z,98878.19
2023-03-05T01:11:14.807Z,98882.50
2023-03-05T01:14:16.317Z,98879.38
2023-03-05T01:17:17.839Z,98876.88
2023-03-05T01:20:20.145Z,98863.88
2023-03-05T01:23:21.641Z,98862.16
2023-03-05T01:26:23.189Z,98852.56
2023-03-05T01:29:24.763Z,98849.81
2023-03-05T01:32:26.317Z,98846.25
2023-03-05T01:35:27.955Z,98847.25
2023-03-05T01:38:29.501Z,98840.31
2023-03-05T01:41:34.044Z,98840.16
2023-03-05T01:44:35.537Z,98832.28
2023-03-05T01:47:37.410Z,98833.38
2023-03-05T01:50:38.897Z,98824.19
2023-03-05T01:53:40.379Z,98823.38
2023-03-05T01:56:42.002Z,98808.41
2023-03-05T01:59:44.640Z,98813.13
2023-03-05T02:02:47.395Z,98813.28
2023-03-05T02:05:48.864Z,98809.84
2023-03-05T02:08:50.383Z,98804.81
2023-03-05T02:11:51.914Z,98805.75
2023-03-05T02:14:59.088Z,98800.97
2023-03-05T02:18:01.353Z,98794.00
2023-03-05T02:21:05.284Z,98794.41
2023-03-05T02:24:07.006Z,98786.56
2023-03-05T02:27:08.545Z,98779.81
2023-03-05T02:30:10.705Z,98784.25
2023-03-05T02:33:14.162Z,98772.69
2023-03-05T02:36:15.610Z,98782.09
2023-03-05T02:39:17.340Z,98779.09
2023-03-05T02:42:18.843Z,98774.91
2023-03-05T02:45:20.394Z,98767.84
2023-03-05T02:48:21.900Z,98764.16
2023-03-05T02:51:23.366Z,98763.25
2023-03-05T02:54:24.875Z,98757.88
2023-03-05T02:57:26.384Z,98757.50
2023-03-05T03:00:27.962Z,98761.91
2023-03-05T03:03:30.083Z,98761.81
2023-03-05T03:06:31.605Z,98758.63
2023-03-05T03:09:34.916Z,98755.66
2023-03-05T03:12:39.961Z,98750.41
2023-03-05T03:15:41.454Z,98752.03
2023-03-05T03:18:44.091Z,98739.22
2023-03-05T03:21:45.434Z,98741.66
2023-03-05T03:24:46.911Z,98743.78
2023-03-05T03:27:48.450Z,98742.81
2023-03-05T03:30:50.175Z,98733.50
2023-03-05T03:33:51.719Z,98735.91
2023-03-05T03:36:53.191Z,98728.75
2023-03-05T03:39:54.702Z,98725.25
2023-03-05T03:42:56.180Z,98722.81
2023-03-05T03:45:57.653Z,98714.22
2023-03-05T03:48:59.180Z,98712.75
2023-03-05T03:52:00.677Z,98701.47
2023-03-05T03:55:02.194Z,98701.28
2023-03-05T03:58:04.168Z,98701.31
2023-03-05T04:01:05.722Z,98705.47
2023-03-05T04:04:07.335Z,98700.56
2023-03-05T04:07:08.926Z,98702.31
2023-03-05T04:10:11.533Z,98698.06
2023-03-05T04:13:13.002Z,98692.78
2023-03-05T04:16:15.078Z,98686.25
2023-03-05T04:19:16.680Z,98687.72
2023-03-05T04:22:18.201Z,98681.91
2023-03-05T04:25:19.775Z,98683.41
2023-03-05T04:28:21.321Z,98682.78
2023-03-05T04:31:23.781Z,98665.44
2023-03-05T04:34:25.354Z,98671.16
2023-03-05T04:37:26.845Z,98660.81
2023-03-05T04:40:28.375Z,98666.41
2023-03-05T04:43:29.974Z,98672.59
2023-03-05T04:46:31.530Z,98666.41
2023-03-05T04:49:33.013Z,98667.59
2023-03-05T04:52:34.522Z,98664.69
2023-03-05T04:55:36.040Z,98658.13
2023-03-05T04:58:37.542Z,98654.47
2023-03-05T05:01:39.281Z,98652.47
2023-03-05T05:04:44.916Z,98643.63
2023-03-05T05:07:47.045Z,98639.53
2023-03-05T05:11:08.834Z,98645.75
2023-03-05T05:14:10.385Z,98650.69
2023-03-05T05:17:11.878Z,98633.59
2023-03-05T05:20:14.256Z,98639.31
2023-03-05T05:23:15.925Z,98643.38
2023-03-05T05:26:17.405Z,98639.84
2023-03-05T05:29:18.880Z,98639.75
2023-03-05T05:32:20.993Z,98635.56
2023-03-05T05:35:22.526Z,98626.13
2023-03-05T05:38:24.032Z,98631.84
2023-03-05T05:41:25.494Z,98632.44
2023-03-05T05:44:26.973Z,98628.00
2023-03-05T05:47:29.387Z,98632.25
2023-03-05T05:50:30.918Z,98630.97
2023-03-05T05:53:32.413Z,98621.16
2023-03-05T05:56:33.952Z,98625.63
2023-03-05T05:59:35.457Z,98629.97
2023-03-05T06:02:40.700Z,98621.44
2023-03-05T06:05:42.795Z,98621.38
2023-03-05T06:08:44.266Z,98620.53
2023-03-05T06:11:45.794Z,98624.81
2023-03-05T06:14:47.534Z,98620.44
2023-03-05T06:17:49.041Z,98612.75
2023-03-05T06:20:57.834Z,98620.59
2023-03-05T06:23:59.350Z,98615.41
2023-03-05T06:27:00.841Z,98615.16
2023-03-05T06:30:02.451Z,98609.28
2023-03-05T06:33:03.924Z,98605.38
2023-03-05T06:36:06.603Z,98607.97
2023-03-05T06:39:08.188Z,98613.72
2023-03-05T06:42:10.132Z,98611.06
2023-03-05T06:45:11.842Z,98612.97
2023-03-05T06:48:13.432Z,98617.53
2023-03-05T06:51:16.763Z,98622.72
2023-03-05T06:54:18.495Z,98624.41
2023-03-05T06:57:19.983Z,98623.50
2023-03-05T07:00:21.981Z,98622.91
2023-03-05T07:03:24.194Z,98610.69
2023-03-05T07:06:27.378Z,98611.78
2023-03-05T07:09:29.040Z,98618.00
2023-03-05T07:12:30.506Z,98617.19
2023-03-05T07:15:32.012Z,98610.44
2023-03-05T07:18:33.569Z,98617.91
2023-03-05T07:21:37.436Z,98611.38
2023-03-05T07:24:40.679Z,98623.66
2023-03-05T07:27:42.142Z,98616.19
2023-03-05T07:30:43.718Z,98613.44
2023-03-05T07:33:48.839Z,98611.88
2023-03-05T07:36:51.468Z,98618.75
2023-03-05T07:39:52.805Z,98613.22
2023-03-05T07:42:54.578Z,98606.56
2023-03-05T07:45:56.205Z,98608.19
2023-03-05T07:48:57.727Z,98607.13
2023-03-05T07:51:59.230Z,98613.28
2023-03-05T07:55:00.736Z,98611.00
2023-03-05T07:58:02.250Z,98616.97
2023-03-05T08:01:03.986Z,98611.59
2023-03-05T08:04:05.809Z,98620.50
2023-03-05T08:07:07.318Z,98613.06
2023-03-05T08:10:09.585Z,98611.13
2023-03-05T08:13:11.107Z,98610.59
2023-03-05T08:16:14.512Z,98615.75
2023-03-05T08:19:16.085Z,98609.84
2023-03-05T08:22:20.455Z,98609.97
2023-03-05T08:25:22.034Z,98611.06
2023-03-05T08:28:23.703Z,98605.22
2023-03-05T08:31:26.017Z,98611.59
2023-03-05T08:34:27.511Z,98596.28
2023-03-05T08:37:28.971Z,98601.53
2023-03-05T08:40:30.477Z,98598.84
2023-03-05T08:43:33.195Z,98601.59
2023-03-05T08:46:34.939Z,98593.97
2023-03-05T08:49:37.259Z,98596.13
2023-03-05T08:52:38.756Z,98599.84
2023-03-05T08:55:40.224Z,98596.63
2023-03-05T08:58:41.842Z,98599.22
2023-03-05T09:01:43.425Z,98597.28
2023-03-05T09:04:44.939Z,98591.44
2023-03-05T09:07:46.467Z,98595.78
2023-03-05T09:10:47.993Z,98585.16
2023-03-05T09:13:49.475Z,98583.28
2023-03-05T09:16:51.011Z,98584.00
2023-03-05T09:19:52.605Z,98580.22
2023-03-05T09:22:54.144Z,98582.53
2023-03-05T09:25:55.634Z,98581.66
2023-03-05T09:28:57.172Z,98580.00
2023-03-05T09:31:58.836Z,98579.84
2023-03-05T09:35:00.402Z,98579.81
2023-03-05T09:38:02.184Z,98578.19
2023-03-05T09:41:31.966Z,98566.97
2023-03-05T09:45:03.450Z,98570.63
2023-03-05T09:48:13.160Z,98569.28
2023-03-05T09:51:26.024Z,98573.94
2023-03-05T09:54:40.337Z,98568.19
2023-03-05T09:57:43.456Z,98563.78
2023-03-05T10:00:54.342Z,98559.28
2023-03-05T10:04:01.971Z,98562.56
2023-03-05T10:07:19.537Z,98569.00
2023-03-05T10:10:24.973Z,98559.53
2023-03-05T10:13:30.161Z,98561.53
2023-03-05T10:16:40.890Z,98554.56
2023-03-05T10:20:06.208Z,98551.03
2023-03-05T10:23:25.844Z,98553.63
2023-03-05T10:26:33.661Z,98552.97
2023-03-05T10:29:58.011Z,98547.16
2023-03-05T10:33:00.852Z,98539.06
2023-03-05T10:36:14.476Z,98535.94
2023-03-05T10:39:34.342Z,98529.19
2023-03-05T10:42:48.312Z,98525.56
2023-03-05T10:45:53.765Z,98528.84
2023-03-05T10:48:58.721Z,98522.78
2023-03-05T10:52:18.359Z,98519.19
2023-03-05T10:55:21.532Z,98514.75
2023-03-05T10:58:24.827Z,98511.38
2023-03-05T11:01:28.105Z,98513.03
2023-03-05T11:04:29.969Z,98506.19
2023-03-05T11:07:33.569Z,98499.84
2023-03-05T11:10:35.041Z,98500.69
2023-03-05T11:13:38.324Z,98499.63
2023-03-05T11:16:47.855Z,98499.00
2023-03-05T11:19:49.350Z,98488.72
2023-03-05T11:23:09.521Z,98493.44
2023-03-05T11:26:13.857Z,98481.53
2023-03-05T11:29:36.633Z,98484.41
2023-03-05T11:32:38.279Z,98479.22
2023-03-05T11:35:40.935Z,98477.59
2023-03-05T11:38:46.922Z,98479.06
2023-03-05T11:41:59.286Z,98472.09
2023-03-05T11:45:00.803Z,98455.88
2023-03-05T11:48:08.628Z,98462.19
2023-03-05T11:51:17.997Z,98456.03
2023-03-05T11:54:23.357Z,98456.59
2023-03-05T11:57:24.839Z,98448.34
2023-03-05T12:00:28.524Z,98449.06
2023-03-05T12:03:32.301Z,98446.38
2023-03-05T12:06:43.159Z,98438.97
2023-03-05T12:09:49.488Z,98440.63
2023-03-05T12:12:58.449Z,98442.97
2023-03-05T12:16:11.456Z,98430.44
2023-03-05T12:19:34.519Z,98430.22
2023-03-05T12:22:39.752Z,98425.63
2023-03-05T12:25:52.037Z,98424.59
2023-03-05T12:28:54.237Z,98415.25
2023-03-05T12:31:55.840Z,98405.16
2023-03-05T12:35:00.222Z,98401.81
2023-03-05T12:38:06.192Z,98396.78
2023-03-05T12:41:26.242Z,98391.03
2023-03-05T12:44:29.667Z,98392.47
2023-03-05T12:47:31.147Z,98382.22
2023-03-05T12:50:47.472Z,98380.69
2023-03-05T12:53:51.245Z,98381.25
2023-03-05T12:56:53.103Z,98370.91
2023-03-05T13:00:11.018Z,98364.81
2023-03-05T13:03:17.539Z,98360.22
2023-03-05T13:06:45.407Z,98360.41
2023-03-05T13:09:52.890Z,98358.16
2023-03-05T13:12:55.821Z,98354.38
2023-03-05T13:15:57.471Z,98348.41
2023-03-05T13:19:01.114Z,98351.16
2023-03-05T13:22:04.676Z,98350.94
2023-03-05T13:25:20.631Z,98341.63
2023-03-05T13:28:22.136Z,98338.34
2023-03-05T13:31:24.495Z,98336.69
2023-03-05T13:34:40.802Z,98337.38
2023-03-05T13:37:47.496Z,98332.47
2023-03-05T13:41:04.474Z,98333.44
2023-03-05T13:44:06.035Z,98334.91
2023-03-05T13:47:18.985Z,98332.38
2023-03-05T13:50:25.905Z,98336.97
2023-03-05T13:53:28.992Z,98334.91
2023-03-05T13:56:30.480Z,98332.38
2023-03-05T13:59:33.899Z,98326.31
2023-03-05T14:02:35.513Z,98323.81
2023-03-05T14:05:37.054Z,98318.53
2023-03-05T14:08:38.625Z,98315.22
2023-03-05T14:11:40.118Z,98311.13
2023-03-05T14:14:41.847Z,98305.78
2023-03-05T14:17:43.365Z,98305.09
2023-03-05T14:21:02.559Z,98302.38
2023-03-05T14:24:12.461Z,98295.44
2023-03-05T14:27:17.750Z,98293.00
2023-03-05T14:30:22.806Z,98294.41
2023-03-05T14:33:29.592Z,98283.28
2023-03-05T14:36:31.291Z,98284.00
2023-03-05T14:39:46.672Z,98274.50
2023-03-05T14:43:04.756Z,98276.06
2023-03-05T14:46:06.338Z,98272.56
2023-03-05T14:49:07.920Z,98269.97
2023-03-05T14:52:14.794Z,98262.97
2023-03-05T14:55:17.600Z,98260.38
2023-03-05T14:58:25.116Z,98251.84
2023-03-05T15:01:26.722Z,98252.63
2023-03-05T15:04:28.258Z,98253.53
2023-03-05T15:07:30.405Z,98245.78
2023-03-05T15:10:31.964Z,98243.16
2023-03-05T15:13:34.696Z,98243.94
2023-03-05T15:16:36.208Z,98238.00
2023-03-05T15:19:37.689Z,98235.41
2023-03-05T15:22:39.179Z,98227.72
2023-03-05T15:25:42.034Z,98226.63
2023-03-05T15:28:43.577Z,98217.94
2023-03-05T15:31:45.048Z,98216.28
2023-03-05T15:34:46.719Z,98213.75
2023-03-05T15:37:48.212Z,98207.66
2023-03-05T15:40:50.037Z,98207.59
2023-03-05T15:43:51.816Z,98201.28
2023-03-05T15:46:53.413Z,98201.41
2023-03-05T15:49:54.913Z,98200.53
2023-03-05T15:52:56.891Z,98186.00
2023-03-05T15:55:58.557Z,98191.75
2023-03-05T15:59:00.984Z,98187.63
2023-03-05T16:02:02.484Z,98191.00
2023-03-05T16:05:04.540Z,98186.50
2023-03-05T16:08:06.593Z,98186.59
2023-03-05T16:11:08.129Z,98186.53
2023-03-05T16:14:09.605Z,98181.34
2023-03-05T16:17:11.178Z,98173.59
2023-03-05T16:20:13.003Z,98167.50
2023-03-05T16:23:14.541Z,98164.03
2023-03-05T16:26:16.195Z,98159.81
2023-03-05T16:29:17.664Z,98154.69
2023-03-05T16:32:19.222Z,98157.09
2023-03-05T16:35:20.950Z,98153.69
2023-03-05T16:38:22.438Z,98150.19
2023-03-05T16:41:24.445Z,98143.19
2023-03-05T16:44:25.969Z,98146.00
2023-03-05T16:47:27.464Z,98149.44
2023-03-05T16:50:28.945Z,98138.19
2023-03-05T16:53:30.413Z,98146.81
2023-03-05T16:56:31.905Z,98140.47
2023-03-05T16:59:33.396Z,98131.81
2023-03-05T17:02:35.136Z,98134.56
2023-03-05T17:05:36.926Z,98126.84
2023-03-05T17:08:38.482Z,98129.47
2023-03-05T17:11:40.055Z,98123.44
2023-03-05T17:14:41.528Z,98122.63
2023-03-05T17:17:43.101Z,98122.63
2023-03-05T17:20:44.623Z,98119.09
2023-03-05T17:23:46.144Z,98119.06
2023-03-05T17:26:47.703Z,98120.75
2023-03-05T17:29:49.213Z,98118.03
2023-03-05T17:32:52.566Z,98121.59
2023-03-05T17:35:54.309Z,98119.00
2023-03-05T17:38:55.829Z,98117.16
2023-03-05T17:41:57.398Z,98113.72
2023-03-05T17:44:59.242Z,98112.81
2023-03-05T17:48:00.785Z,98113.59
2023-03-05T17:51:02.267Z,98109.19
2023-03-05T17:54:04.592Z,98113.31
2023-03-05T17:57:06.097Z,98113.22
2023-03-05T18:00:11.994Z,98114.16
2023-03-05T18:03:13.511Z,98114.03
2023-03-05T18:06:15.000Z,98107.16
2023-03-05T18:09:16.470Z,98110.53
2023-03-05T18:12:18.052Z,98104.50
2023-03-05T18:15:19.831Z,98107.22
2023-03-05T18:18:21.607Z,98102.84
2023-03-05T18:21:23.979Z,98112.25
2023-03-05T18:24:25.485Z,98105.41
2023-03-05T18:27:27.106Z,98097.16
2023-03-05T18:30:28.801Z,98102.41
2023-03-05T18:33:30.315Z,98105.88
2023-03-05T18:36:32.137Z,98107.56
2023-03-05T18:39:33.963Z,98100.72
2023-03-05T18:42:36.802Z,98094.72
2023-03-05T18:45:38.338Z,98090.25
2023-03-05T18:48:40.041Z,98090.22
2023-03-05T18:51:41.658Z,98091.19
2023-03-05T18:54:43.151Z,98087.75
2023-03-05T18:57:44.706Z,98085.97
2023-03-05T19:00:47.084Z,98086.88
2023-03-05T19:03:49.267Z,98078.28
2023-03-05T19:06:50.756Z,98081.91
2023-03-05T19:09:59.646Z,98078.34
2023-03-05T19:13:24.114Z,98068.75
2023-03-05T19:16:33.798Z,98069.56
2023-03-05T19:19:35.305Z,98062.59
2023-03-05T19:22:36.779Z,98065.19
2023-03-05T19:25:40.171Z,98066.75
2023-03-05T19:28:41.666Z,98059.75
2023-03-05T19:31:43.165Z,98064.06
2023-03-05T19:34:44.974Z,98055.34
2023-03-05T19:37:46.593Z,98060.44
2023-03-05T19:40:48.086Z,98053.56
2023-03-05T19:43:49.921Z,98051.78
2023-03-05T19:46:51.435Z,98053.56
2023-03-05T19:49:52.977Z,98050.16
2023-03-05T19:52:54.465Z,98047.56
2023-03-05T19:55:56.560Z,98042.34
2023-03-05T19:58:58.190Z,98040.59
2023-03-05T20:02:00.323Z,98032.81
2023-03-05T20:05:02.235Z,98036.28
2023-03-05T20:08:03.747Z,98037.81
2023-03-05T20:11:05.453Z,98032.56
2023-03-05T20:14:07.374Z,98026.72
2023-03-05T20:17:08.866Z,98034.41
2023-03-05T20:20:13.420Z,98033.59
2023-03-05T20:23:14.927Z,98024.88
2023-03-05T20:26:16.671Z,98031.84
2023-03-05T20:29:18.831Z,98021.47
2023-03-05T20:32:20.457Z,98018.97
2023-03-05T20:35:21.988Z,98018.69
2023-03-05T20:38:29.481Z,98030.03
2023-03-05T20:41:31.091Z,98018.03
2023-03-05T20:44:32.631Z,98012.09
2023-03-05T20:47:40.784Z,98012.06
2023-03-05T20:50:42.455Z,98000.91
2023-03-05T20:53:44.035Z,98002.50
2023-03-05T20:56:45.621Z,98000.63
2023-03-05T20:59:47.138Z,97997.19
2023-03-05T21:02:50.264Z,97989.38
2023-03-05T21:05:51.899Z,97988.66
2023-03-05T21:08:53.501Z,97984.28
2023-03-05T21:11:54.997Z,97975.63
2023-03-05T21:14:56.503Z,97980.84
2023-03-05T21:17:58.013Z,97973.09
2023-03-05T21:20:59.496Z,97969.66
2023-03-05T21:24:01.235Z,97968.75
2023-03-05T21:27:02.734Z,97961.63
2023-03-05T21:30:04.551Z,97965.88
2023-03-05T21:33:08.127Z,97958.13
2023-03-05T21:36:09.672Z,97953.91
2023-03-05T21:39:11.149Z,97954.78
2023-03-05T21:42:12.758Z,97943.31
2023-03-05T21:45:17.692Z,97943.34
2023-03-05T21:48:19.444Z,97940.75
2023-03-05T21:51:26.731Z,97935.66
2023-03-05T21:54:29.135Z,97924.56
2023-03-05T21:57:30.745Z,97922.00
2023-03-05T22:00:32.225Z,97915.19
2023-03-05T22:03:33.766Z,97920.34
2023-03-05T22:06:35.278Z,97906.53
2023-03-05T22:09:36.753Z,97908.19
2023-03-05T22:13:03.094Z,97911.59
2023-03-05T22:16:05.322Z,97901.22
2023-03-05T22:19:07.158Z,97908.19
2023-03-05T22:22:08.668Z,97896.94
2023-03-05T22:25:12.833Z,97895.16
2023-03-05T22:28:14.322Z,97892.50
2023-03-05T22:31:25.883Z,97887.16
2023-03-05T22:34:28.827Z,97878.53
2023-03-05T22:37:30.461Z,97880.31
2023-03-05T22:40:31.930Z,97882.00
2023-03-05T22:43:33.406Z,97872.44
2023-03-05T22:46:37.708Z,97865.59
2023-03-05T22:49:39.201Z,97856.22
2023-03-05T22:52:40.685Z,97855.25
2023-03-05T22:55:42.257Z,97852.91
2023-03-05T22:58:43.805Z,97839.88
2023-03-05T23:01:45.298Z,97843.19
2023-03-05T23:04:52.528Z,97839.75
2023-03-05T23:07:54.024Z,97824.22
2023-03-05T23:10:55.517Z,97822.50
2023-03-05T23:13:57.003Z,97822.50
2023-03-05T23:16:58.518Z,97815.56
2023-03-05T23:19:59.998Z,97816.41
2023-03-05T23:23:01.531Z,97805.19
2023-03-05T23:26:03.050Z,97804.38
2023-03-05T23:29:04.536Z,97813.72
2023-03-05T23:32:06.391Z,97809.41
2023-03-05T23:35:10.329Z,97802.47
2023-03-05T23:38:12.838Z,97800.63
2023-03-05T23:41:14.313Z,97790.50
2023-03-05T23:44:15.801Z,97789.78
2023-03-05T23:47:17.296Z,97791.59
2023-03-05T23:50:22.424Z,97787.16
2023-03-05T23:53:25.574Z,97783.59
2023-03-05T23:56:27.130Z,97776.78
2023-03-05T23:59:28.609Z,97770.78
